createdAt,value
2022-10-13T00:00:29.314Z,10.33
2022-10-13T00:02:58.056Z,10.32
2022-10-13T00:05:24.865Z,10.38
2022-10-13T00:07:51.751Z,10.43
2022-10-13T00:10:18.691Z,10.38
2022-10-13T00:12:45.446Z,10.06
2022-10-13T00:15:12.352Z,10.04
2022-10-13T00:17:39.178Z,10.08
2022-10-13T00:20:06.930Z,10.14
2022-10-13T00:22:33.834Z,10.19
2022-10-13T00:25:00.856Z,10.31
2022-10-13T00:27:27.642Z,10.41
2022-10-13T00:29:54.427Z,10.42
2022-10-13T00:32:21.455Z,10.46
2022-10-13T00:34:48.409Z,10.53
2022-10-13T00:37:15.245Z,10.57
2022-10-13T00:39:42.071Z,10.58
2022-10-13T00:42:12.389Z,10.62
2022-10-13T00:45:12.770Z,10.62
2022-10-13T00:47:43.641Z,10.61
2022-10-13T00:50:12.933Z,10.55
2022-10-13T00:52:39.952Z,10.57
2022-10-13T00:55:08.225Z,10.56
2022-10-13T00:57:35.876Z,10.58
2022-10-13T01:00:04.775Z,10.53
2022-10-13T01:02:33.085Z,10.53
2022-10-13T01:05:00.264Z,10.51
2022-10-13T01:07:27.343Z,10.48
2022-10-13T01:09:54.201Z,10.35
2022-10-13T01:12:23.820Z,10.27
2022-10-13T01:15:09.451Z,10.27
2022-10-13T01:17:37.765Z,10.17
2022-10-13T01:20:26.328Z,10.02
2022-10-13T01:23:04.992Z,9.97
2022-10-13T01:25:59.052Z,10.04
2022-10-13T01:29:01.271Z,10.04
2022-10-13T01:31:35.498Z,9.99
2022-10-13T01:34:40.922Z,9.98
2022-10-13T01:37:16.856Z,9.98
2022-10-13T01:39:54.291Z,9.97
2022-10-13T01:42:33.424Z,9.92
2022-10-13T01:45:01.821Z,9.92
2022-10-13T01:47:30.907Z,9.91
2022-10-13T01:49:58.173Z,9.88
2022-10-13T01:52:28.128Z,9.88
2022-10-13T01:54:55.134Z,9.87
2022-10-13T01:57:41.417Z,9.83
2022-10-13T02:00:11.537Z,9.80
2022-10-13T02:02:44.665Z,9.78
2022-10-13T02:05:20.029Z,9.77
2022-10-13T02:07:53.442Z,9.77
2022-10-13T02:10:28.797Z,9.70
2022-10-13T02:13:01.803Z,9.81
2022-10-13T02:15:35.591Z,9.81
2022-10-13T02:18:03.214Z,9.82
2022-10-13T02:20:30.744Z,9.86
2022-10-13T02:23:01.434Z,9.86
2022-10-13T02:25:28.907Z,9.88
2022-10-13T02:27:58.979Z,9.89
2022-10-13T02:30:28.602Z,9.88
2022-10-13T02:32:55.555Z,9.90
2022-10-13T02:35:22.482Z,9.88
2022-10-13T02:37:49.246Z,9.86
2022-10-13T02:40:16.075Z,9.84
2022-10-13T02:42:43.106Z,9.82
2022-10-13T02:45:10.499Z,9.85
2022-10-13T02:47:37.295Z,9.83
2022-10-13T02:50:05.177Z,9.82
2022-10-13T02:52:31.995Z,9.84
2022-10-13T02:54:58.836Z,9.87
2022-10-13T02:57:25.653Z,9.83
2022-10-13T02:59:52.765Z,9.79
2022-10-13T03:02:20.355Z,9.78
2022-10-13T03:04:49.063Z,9.86
2022-10-13T03:07:16.147Z,9.75
2022-10-13T03:09:43.434Z,9.73
2022-10-13T03:12:10.219Z,9.80
2022-10-13T03:14:37.044Z,9.66
2022-10-13T03:17:04.232Z,9.77
2022-10-13T03:19:31.200Z,9.70
2022-10-13T03:21:57.988Z,9.53
2022-10-13T03:24:26.005Z,9.70
2022-10-13T03:26:53.381Z,9.70
2022-10-13T03:29:20.481Z,9.70
2022-10-13T03:31:47.304Z,9.78
2022-10-13T03:34:16.557Z,9.86
2022-10-13T03:36:43.523Z,9.92
2022-10-13T03:39:10.373Z,9.97
2022-10-13T03:41:37.174Z,9.97
2022-10-13T03:44:04.249Z,9.99
2022-10-13T03:46:31.977Z,9.98
2022-10-13T03:48:58.849Z,9.92
2022-10-13T03:51:25.718Z,10.00
2022-10-13T03:53:53.388Z,10.04
2022-10-13T03:56:22.839Z,10.05
2022-10-13T03:58:54.029Z,10.04
2022-10-13T04:01:23.228Z,10.01
2022-10-13T04:03:51.960Z,9.85
2022-10-13T04:06:18.751Z,9.78
2022-10-13T04:08:46.063Z,9.82
2022-10-13T04:11:15.011Z,9.71
2022-10-13T04:13:42.300Z,9.65
2022-10-13T04:16:13.893Z,9.60
2022-10-13T04:18:44.654Z,9.69
2022-10-13T04:21:14.712Z,9.73
2022-10-13T04:23:41.634Z,9.77
2022-10-13T04:26:18.476Z,9.80
2022-10-13T04:28:47.289Z,9.75
2022-10-13T04:31:14.392Z,9.87
2022-10-13T04:33:41.164Z,9.94
2022-10-13T04:36:10.327Z,9.97
2022-10-13T04:38:37.321Z,9.98
2022-10-13T04:41:05.516Z,9.98
2022-10-13T04:43:33.364Z,9.96
2022-10-13T04:46:04.890Z,9.96
2022-10-13T04:48:31.780Z,9.98
2022-10-13T04:51:02.071Z,9.99
2022-10-13T04:53:29.564Z,9.96
2022-10-13T04:56:00.090Z,10.01
2022-10-13T04:58:26.973Z,10.01
2022-10-13T05:00:53.824Z,9.89
2022-10-13T05:03:20.678Z,9.91
2022-10-13T05:05:47.515Z,9.88
2022-10-13T05:08:14.397Z,9.70
2022-10-13T05:10:41.459Z,9.76
2022-10-13T05:13:08.387Z,9.86
2022-10-13T05:15:35.228Z,9.91
2022-10-13T05:18:02.031Z,9.89
2022-10-13T05:20:28.789Z,9.83
2022-10-13T05:22:55.636Z,9.90
2022-10-13T05:25:22.616Z,9.94
2022-10-13T05:27:49.776Z,9.94
2022-10-13T05:30:16.624Z,10.00
2022-10-13T05:32:43.539Z,10.06
2022-10-13T05:35:10.284Z,10.07
2022-10-13T05:37:37.292Z,10.06
2022-10-13T05:40:04.508Z,9.91
2022-10-13T05:42:31.303Z,9.98
2022-10-13T05:44:58.160Z,10.02
2022-10-13T05:47:28.146Z,10.02
2022-10-13T05:49:55.666Z,10.03
2022-10-13T05:52:23.952Z,9.98
2022-10-13T05:54:54.666Z,9.99
2022-10-13T05:57:44.380Z,10.06
2022-10-13T06:00:14.581Z,9.98
2022-10-13T06:02:53.363Z,10.09
2022-10-13T06:05:22.271Z,10.06
2022-10-13T06:07:49.578Z,10.11
2022-10-13T06:10:16.545Z,9.99
2022-10-13T06:12:43.284Z,9.67
2022-10-13T06:15:10.658Z,9.94
2022-10-13T06:17:38.573Z,9.94
2022-10-13T06:20:06.816Z,9.88
2022-10-13T06:22:35.072Z,10.03
2022-10-13T06:25:02.529Z,9.85
2022-10-13T06:27:29.516Z,9.87
2022-10-13T06:29:56.322Z,9.88
2022-10-13T06:32:23.585Z,10.02
2022-10-13T06:34:50.528Z,10.11
2022-10-13T06:37:17.512Z,10.27
2022-10-13T06:39:44.483Z,10.35
2022-10-13T06:42:11.274Z,10.50
2022-10-13T06:44:38.336Z,10.40
2022-10-13T06:47:05.564Z,10.37
2022-10-13T06:49:32.369Z,10.14
2022-10-13T06:51:59.243Z,10.15
2022-10-13T06:54:26.056Z,10.38
2022-10-13T06:56:52.934Z,10.42
2022-10-13T06:59:20.136Z,10.52
2022-10-13T07:01:48.587Z,10.64
2022-10-13T07:04:15.600Z,10.67
2022-10-13T07:06:42.435Z,10.61
2022-10-13T07:09:09.796Z,10.63
2022-10-13T07:11:36.855Z,10.94
2022-10-13T07:14:03.730Z,11.13
2022-10-13T07:16:30.768Z,11.29
2022-10-13T07:18:58.256Z,11.41
2022-10-13T07:21:25.076Z,11.41
2022-10-13T07:23:51.852Z,11.10
2022-10-13T07:26:18.702Z,11.28
2022-10-13T07:28:45.774Z,11.27
2022-10-13T07:31:15.801Z,11.55
2022-10-13T07:33:44.534Z,11.68
2022-10-13T07:36:12.077Z,11.54
2022-10-13T07:38:39.193Z,11.59
2022-10-13T07:41:07.784Z,11.48
2022-10-13T07:43:34.853Z,11.63
2022-10-13T07:46:04.689Z,11.87
2022-10-13T07:48:31.990Z,12.21
2022-10-13T07:50:59.192Z,12.53
2022-10-13T07:53:26.006Z,12.80
2022-10-13T07:55:52.921Z,13.07
2022-10-13T07:58:19.737Z,12.94
2022-10-13T08:00:56.014Z,12.99
2022-10-13T08:03:22.825Z,13.01
2022-10-13T08:05:49.718Z,13.28
2022-10-13T08:08:16.668Z,13.60
2022-10-13T08:10:43.612Z,13.89
2022-10-13T08:13:11.426Z,14.13
2022-10-13T08:15:42.060Z,14.32
2022-10-13T08:18:09.755Z,14.32
2022-10-13T08:20:43.383Z,14.38
2022-10-13T08:23:11.174Z,14.19
2022-10-13T08:25:39.122Z,13.83
2022-10-13T08:28:07.029Z,14.05
2022-10-13T08:30:34.051Z,13.86
2022-10-13T08:33:01.050Z,14.15
2022-10-13T08:35:32.498Z,14.38
2022-10-13T08:38:00.979Z,14.44
2022-10-13T08:40:27.809Z,14.52
2022-10-13T08:42:59.514Z,14.84
2022-10-13T08:45:40.820Z,14.88
2022-10-13T08:48:19.174Z,14.64
2022-10-13T08:50:48.726Z,15.21
2022-10-13T08:53:28.828Z,15.35
2022-10-13T08:56:01.339Z,15.06
2022-10-13T08:58:31.489Z,15.26
2022-10-13T09:00:58.751Z,15.69
2022-10-13T09:03:29.843Z,15.89
2022-10-13T09:06:34.230Z,16.16
2022-10-13T09:09:06.460Z,16.41
2022-10-13T09:11:36.186Z,16.51
2022-10-13T09:14:08.795Z,16.91
2022-10-13T09:16:38.442Z,17.17
2022-10-13T09:19:31.982Z,17.43
2022-10-13T09:22:20.274Z,17.17
2022-10-13T09:24:47.607Z,17.23
2022-10-13T09:27:17.348Z,17.48
2022-10-13T09:29:45.512Z,17.41
2022-10-13T09:32:19.365Z,17.64
2022-10-13T09:34:47.490Z,17.56
2022-10-13T09:37:25.567Z,17.50
2022-10-13T09:40:12.955Z,17.64
2022-10-13T09:42:40.036Z,17.89
2022-10-13T09:45:26.473Z,17.89
2022-10-13T09:47:56.270Z,17.95
2022-10-13T09:50:34.249Z,17.86
2022-10-13T09:53:16.154Z,18.29
2022-10-13T09:55:43.072Z,18.34
2022-10-13T09:58:16.269Z,17.88
2022-10-13T10:00:43.777Z,18.25
2022-10-13T10:03:23.938Z,18.53
2022-10-13T10:05:56.179Z,18.40
2022-10-13T10:09:03.128Z,18.61
2022-10-13T10:11:34.969Z,18.47
2022-10-13T10:14:28.236Z,18.39
2022-10-13T10:16:59.531Z,18.54
2022-10-13T10:19:32.402Z,18.39
2022-10-13T10:22:16.194Z,18.65
2022-10-13T10:25:01.965Z,18.48
2022-10-13T10:27:35.571Z,18.84
2022-10-13T10:30:18.885Z,18.79
2022-10-13T10:33:18.465Z,18.71
2022-10-13T10:36:19.880Z,18.26
2022-10-13T10:39:03.175Z,18.61
2022-10-13T10:41:38.944Z,18.64
2022-10-13T10:44:19.501Z,18.30
2022-10-13T10:46:48.864Z,18.66
2022-10-13T10:49:17.888Z,18.75
2022-10-13T10:51:45.073Z,19.03
2022-10-13T10:54:23.725Z,19.19
2022-10-13T10:57:00.941Z,19.32
2022-10-13T11:00:04.996Z,19.16
2022-10-13T11:02:47.553Z,19.30
2022-10-13T11:05:15.342Z,19.41
2022-10-13T11:07:43.044Z,19.43
2022-10-13T11:10:18.453Z,19.33
2022-10-13T11:12:50.797Z,19.48
2022-10-13T11:15:27.714Z,19.59
2022-10-13T11:17:54.973Z,19.74
2022-10-13T11:20:21.704Z,19.49
2022-10-13T11:23:00.580Z,19.49
2022-10-13T11:25:44.691Z,19.47
2022-10-13T11:28:20.852Z,19.14
2022-10-13T11:31:17.739Z,18.56
2022-10-13T11:33:45.717Z,18.97
2022-10-13T11:36:37.367Z,19.40
2022-10-13T11:39:12.952Z,19.42
2022-10-13T11:41:55.275Z,19.57
2022-10-13T11:44:31.174Z,19.51
2022-10-13T11:47:04.299Z,19.67
2022-10-13T11:49:57.244Z,19.62
2022-10-13T11:52:34.868Z,19.44
2022-10-13T11:55:11.367Z,19.59
2022-10-13T11:57:38.152Z,19.64
2022-10-13T12:00:11.329Z,19.75
2022-10-13T12:02:50.952Z,19.78
2022-10-13T12:05:26.182Z,19.58
2022-10-13T12:07:55.343Z,19.76
2022-10-13T12:10:29.905Z,19.68
2022-10-13T12:12:57.522Z,19.48
2022-10-13T12:15:33.961Z,19.09
2022-10-13T12:18:00.855Z,19.31
2022-10-13T12:20:30.434Z,19.17
2022-10-13T12:22:57.379Z,19.32
2022-10-13T12:25:27.419Z,18.80
2022-10-13T12:27:56.656Z,19.25
2022-10-13T12:30:25.471Z,19.12
2022-10-13T12:32:55.097Z,19.49
2022-10-13T12:35:30.983Z,19.38
2022-10-13T12:38:01.874Z,19.69
2022-10-13T12:40:29.806Z,20.01
2022-10-13T12:42:56.756Z,20.18
2022-10-13T12:45:28.191Z,20.28
2022-10-13T12:47:55.396Z,20.36
2022-10-13T12:50:28.033Z,20.45
2022-10-13T12:53:10.014Z,20.43
2022-10-13T12:55:49.912Z,20.25
2022-10-13T12:58:23.329Z,20.35
2022-10-13T13:01:27.134Z,20.18
2022-10-13T13:04:02.318Z,20.47
2022-10-13T13:06:32.592Z,20.50
2022-10-13T13:09:20.953Z,20.14
2022-10-13T13:11:48.393Z,20.27
2022-10-13T13:14:36.569Z,20.16
2022-10-13T13:17:17.372Z,20.17
2022-10-13T13:19:50.179Z,20.21
2022-10-13T13:22:17.599Z,20.08
2022-10-13T13:24:44.999Z,20.26
2022-10-13T13:27:27.465Z,20.45
2022-10-13T13:29:55.847Z,20.42
2022-10-13T13:32:25.089Z,20.11
2022-10-13T13:34:52.182Z,20.03
2022-10-13T13:37:31.102Z,20.06
2022-10-13T13:39:58.780Z,20.10
2022-10-13T13:42:27.633Z,20.04
2022-10-13T13:44:54.735Z,19.93
2022-10-13T13:47:26.250Z,19.98
2022-10-13T13:49:54.659Z,19.96
2022-10-13T13:52:22.182Z,19.85
2022-10-13T13:54:50.698Z,19.67
2022-10-13T13:57:18.556Z,19.55
2022-10-13T13:59:46.544Z,19.50
2022-10-13T14:02:19.745Z,19.57
2022-10-13T14:04:46.894Z,19.46
2022-10-13T14:07:13.976Z,19.38
2022-10-13T14:09:41.676Z,19.36
2022-10-13T14:12:09.263Z,19.37
2022-10-13T14:14:36.206Z,19.36
2022-10-13T14:17:06.263Z,19.20
2022-10-13T14:19:33.380Z,19.15
2022-10-13T14:22:03.718Z,19.10
2022-10-13T14:24:34.083Z,19.05
2022-10-13T14:27:00.904Z,18.96
2022-10-13T14:29:27.723Z,18.91
2022-10-13T14:31:54.525Z,18.86
2022-10-13T14:34:21.686Z,18.82
2022-10-13T14:36:48.472Z,18.70
2022-10-13T14:39:15.269Z,18.69
2022-10-13T14:41:42.113Z,18.64
2022-10-13T14:44:11.303Z,18.60
2022-10-13T14:46:38.103Z,18.50
2022-10-13T14:49:04.947Z,18.45
2022-10-13T14:51:32.349Z,18.39
2022-10-13T14:54:01.659Z,18.27
2022-10-13T14:56:32.774Z,18.19
2022-10-13T14:59:05.039Z,18.13
2022-10-13T15:01:33.413Z,18.03
2022-10-13T15:04:01.322Z,17.95
2022-10-13T15:06:28.324Z,17.82
2022-10-13T15:08:55.154Z,17.77
2022-10-13T15:11:22.491Z,17.71
2022-10-13T15:13:49.269Z,17.61
2022-10-13T15:16:28.483Z,17.54
2022-10-13T15:18:56.012Z,17.45
2022-10-13T15:21:23.628Z,17.35
2022-10-13T15:23:50.498Z,17.23
2022-10-13T15:26:19.129Z,17.14
2022-10-13T15:28:48.431Z,17.03
2022-10-13T15:31:16.983Z,16.93
2022-10-13T15:33:48.706Z,16.82
2022-10-13T15:36:15.761Z,16.69
2022-10-13T15:38:42.581Z,16.42
2022-10-13T15:41:10.399Z,16.40
2022-10-13T15:43:37.224Z,16.33
2022-10-13T15:46:11.492Z,16.22
2022-10-13T15:48:39.068Z,16.12
2022-10-13T15:51:11.484Z,16.01
2022-10-13T15:53:38.255Z,15.92
2022-10-13T15:56:05.253Z,15.81
2022-10-13T15:58:32.089Z,15.72
2022-10-13T16:01:00.335Z,15.65
2022-10-13T16:03:29.820Z,15.58
2022-10-13T16:05:56.882Z,15.47
2022-10-13T16:08:23.742Z,15.37
2022-10-13T16:10:50.491Z,15.27
2022-10-13T16:13:17.412Z,15.19
2022-10-13T16:15:44.238Z,15.11
2022-10-13T16:18:11.052Z,15.02
2022-10-13T16:20:39.388Z,14.93
2022-10-13T16:23:06.210Z,14.84
2022-10-13T16:25:33.013Z,14.71
2022-10-13T16:28:00.772Z,14.63
2022-10-13T16:30:30.371Z,14.51
2022-10-13T16:32:58.097Z,14.43
2022-10-13T16:35:25.251Z,14.28
2022-10-13T16:37:52.129Z,14.26
2022-10-13T16:40:18.915Z,14.18
2022-10-13T16:42:45.877Z,14.09
2022-10-13T16:45:13.240Z,13.99
2022-10-13T16:47:40.103Z,13.94
2022-10-13T16:50:09.686Z,13.85
2022-10-13T16:52:37.577Z,13.76
2022-10-13T16:55:06.069Z,13.69
2022-10-13T16:57:33.012Z,13.61
2022-10-13T17:00:00.441Z,13.57
2022-10-13T17:02:27.229Z,13.44
2022-10-13T17:04:54.211Z,13.40
2022-10-13T17:07:21.388Z,13.28
2022-10-13T17:09:48.500Z,13.32
2022-10-13T17:12:15.738Z,13.24
2022-10-13T17:14:42.561Z,13.21
2022-10-13T17:17:09.423Z,13.10
2022-10-13T17:19:36.569Z,13.10
2022-10-13T17:22:03.712Z,13.04
2022-10-13T17:24:30.769Z,13.00
2022-10-13T17:26:57.660Z,12.94
2022-10-13T17:29:24.565Z,12.86
2022-10-13T17:31:51.469Z,12.85
2022-10-13T17:34:18.380Z,12.82
2022-10-13T17:36:45.253Z,12.76
2022-10-13T17:39:12.429Z,12.71
2022-10-13T17:41:39.991Z,12.66
2022-10-13T17:44:06.796Z,12.61
2022-10-13T17:46:38.760Z,12.56
2022-10-13T17:52:19.192Z,12.40
2022-10-13T18:02:16.614Z,12.22
2022-10-13T18:05:05.823Z,12.14
2022-10-13T18:07:45.913Z,12.01
2022-10-13T18:10:15.118Z,11.97
2022-10-13T18:12:42.205Z,11.90
2022-10-13T18:15:09.403Z,11.80
2022-10-13T18:17:36.219Z,11.68
2022-10-13T18:20:03.371Z,11.67
2022-10-13T18:22:30.259Z,11.60
2022-10-13T18:24:57.402Z,11.55
2022-10-13T18:27:24.270Z,11.45
2022-10-13T18:29:51.099Z,11.43
2022-10-13T18:32:17.993Z,11.35
2022-10-13T18:34:44.855Z,11.08
2022-10-13T18:37:11.658Z,11.01
2022-10-13T18:39:39.025Z,11.15
2022-10-13T18:42:05.890Z,11.16
2022-10-13T18:44:32.676Z,11.16
2022-10-13T18:46:59.522Z,11.17
2022-10-13T18:49:33.117Z,11.15
2022-10-13T18:52:01.081Z,11.18
2022-10-13T18:54:28.958Z,11.18
2022-10-13T18:56:55.911Z,11.12
2022-10-13T18:59:23.034Z,11.12
2022-10-13T19:01:50.256Z,11.10
2022-10-13T19:04:17.110Z,11.06
2022-10-13T19:06:44.358Z,11.02
2022-10-13T19:09:13.665Z,11.02
2022-10-13T19:11:41.736Z,11.01
2022-10-13T19:14:11.325Z,10.96
2022-10-13T19:16:40.367Z,10.87
2022-10-13T19:19:09.211Z,10.86
2022-10-13T19:21:37.127Z,10.87
2022-10-13T19:24:04.138Z,10.78
2022-10-13T19:26:33.166Z,10.73
2022-10-13T19:29:06.118Z,10.70
2022-10-13T19:31:34.309Z,10.67
2022-10-13T19:34:01.534Z,10.46
2022-10-13T19:36:31.724Z,10.51
2022-10-13T19:38:59.232Z,10.44
2022-10-13T19:41:28.306Z,10.42
2022-10-13T19:43:55.636Z,10.33
2022-10-13T19:46:22.503Z,10.25
2022-10-13T19:48:49.521Z,10.19
2022-10-13T19:51:16.383Z,10.16
2022-10-13T19:53:43.437Z,10.08
2022-10-13T19:56:28.263Z,10.00
2022-10-13T19:58:55.063Z,9.97
2022-10-13T20:01:22.723Z,9.95
2022-10-13T20:03:49.533Z,9.93
2022-10-13T20:06:17.265Z,9.88
2022-10-13T20:08:45.072Z,9.82
2022-10-13T20:11:23.340Z,9.78
2022-10-13T20:13:51.037Z,9.77
2022-10-13T20:16:20.533Z,9.73
2022-10-13T20:18:52.250Z,9.71
2022-10-13T20:21:19.037Z,9.68
2022-10-13T20:23:45.784Z,9.67
2022-10-13T20:26:13.103Z,9.66
2022-10-13T20:28:44.421Z,9.68
2022-10-13T20:31:12.913Z,9.68
2022-10-13T20:33:40.459Z,9.71
2022-10-13T20:36:10.499Z,9.62
2022-10-13T20:38:37.364Z,9.66
2022-10-13T20:41:09.024Z,9.69
2022-10-13T20:43:37.193Z,9.67
2022-10-13T20:46:06.882Z,9.68
2022-10-13T20:48:51.446Z,9.69
2022-10-13T20:51:23.545Z,9.67
2022-10-13T20:53:50.688Z,9.49
2022-10-13T20:56:20.388Z,9.54
2022-10-13T20:58:47.898Z,9.38
2022-10-13T21:01:15.020Z,9.38
2022-10-13T21:03:42.019Z,9.34
2022-10-13T21:06:11.489Z,9.27
2022-10-13T21:08:38.849Z,9.31
2022-10-13T21:11:11.254Z,9.32
2022-10-13T21:13:39.151Z,9.31
2022-10-13T21:16:10.333Z,9.33
2022-10-13T21:18:37.292Z,9.28
2022-10-13T21:21:05.390Z,9.28
2022-10-13T21:23:32.442Z,9.22
2022-10-13T21:26:04.240Z,9.26
2022-10-13T21:28:31.803Z,9.14
2022-10-13T21:31:12.391Z,9.13
2022-10-13T21:33:40.134Z,9.04
2022-10-13T21:36:08.368Z,8.97
2022-10-13T21:38:35.427Z,8.87
2022-10-13T21:41:06.723Z,8.98
2022-10-13T21:43:34.107Z,8.98
2022-10-13T21:46:15.058Z,8.98
2022-10-13T21:48:42.077Z,8.87
2022-10-13T21:51:20.270Z,8.95
2022-10-13T21:53:51.376Z,8.91
2022-10-13T21:56:18.989Z,8.91
2022-10-13T21:58:46.249Z,8.87
2022-10-13T22:01:13.410Z,8.84
2022-10-13T22:03:41.628Z,8.87
2022-10-13T22:06:18.273Z,8.85
2022-10-13T22:08:46.725Z,8.84
2022-10-13T22:11:13.982Z,8.87
2022-10-13T22:13:41.087Z,8.87
2022-10-13T22:16:17.976Z,8.79
2022-10-13T22:18:45.246Z,8.75
2022-10-13T22:21:20.502Z,8.70
2022-10-13T22:23:47.595Z,8.66
2022-10-13T22:26:16.029Z,8.67
2022-10-13T22:28:42.959Z,8.58
2022-10-13T22:31:12.522Z,8.62
2022-10-13T22:33:40.861Z,8.59
2022-10-13T22:36:18.532Z,8.60
2022-10-13T22:38:46.356Z,8.52
2022-10-13T22:41:14.745Z,8.47
2022-10-13T22:43:46.719Z,8.39
2022-10-13T22:46:18.630Z,8.53
2022-10-13T22:48:45.821Z,8.50
2022-10-13T22:51:15.015Z,8.49
2022-10-13T22:53:41.815Z,8.50
2022-10-13T22:56:10.368Z,8.44
2022-10-13T22:58:37.160Z,8.39
2022-10-13T23:01:14.851Z,8.36
2022-10-13T23:03:42.213Z,8.40
2022-10-13T23:06:13.155Z,8.35
2022-10-13T23:08:39.920Z,8.34
2022-10-13T23:11:06.806Z,8.35
2022-10-13T23:13:33.629Z,8.35
2022-10-13T23:16:03.551Z,8.33
2022-10-13T23:18:30.361Z,8.32
2022-10-13T23:20:58.204Z,8.28
2022-10-13T23:23:25.026Z,8.27
2022-10-13T23:25:51.838Z,8.27
2022-10-13T23:28:18.611Z,8.24
2022-10-13T23:30:45.466Z,8.22
2022-10-13T23:33:12.374Z,8.18
2022-10-13T23:35:39.261Z,8.15
2022-10-13T23:38:06.071Z,8.14
2022-10-13T23:40:33.837Z,8.10
2022-10-13T23:43:00.560Z,8.10
2022-10-13T23:45:27.372Z,8.05
2022-10-13T23:47:54.357Z,8.03
2022-10-13T23:50:21.152Z,7.96
2022-10-13T23:52:47.958Z,7.91
2022-10-13T23:55:14.815Z,7.89
2022-10-13T23:57:41.651Z,7.93
